Time;durP1;ratioP1;P1;durP2;ratioP2;P2;SDS_P1;SDS_P2;PMS_P1;PMS_P2;Temp;Humidity;BMP_temperature;BMP_pressure;BME280_temperature;BME280_humidity;BME280_pressure;Samples;Min_cycle;Max_cycle;Signal;HPM_P1;HPM_P2
2022/06/22 00:02:31;;;;;;;6.80;4.18;;;;;;;24.63;100.00;100273.69;5134091;28;20050;-70
2022/06/22 00:05:22;;;;;;;8.98;4.35;;;;;;;24.78;100.00;100273.25;5133686;28;20019;-71
2022/06/22 00:08:15;;;;;;;10.48;4.25;;;;;;;24.25;100.00;100281.25;5133799;28;20164;-71
2022/06/22 00:11:11;;;;;;;8.77;4.38;;;;;;;24.52;100.00;100273.66;5133943;27;20023;-70
2022/06/22 00:14:02;;;;;;;12.57;4.60;;;;;;;24.46;100.00;100282.19;5138517;27;20031;-71
2022/06/22 00:16:51;;;;;;;12.85;4.90;;;;;;;24.30;100.00;100289.78;5137717;27;20083;-70
2022/06/22 00:19:41;;;;;;;7.20;4.70;;;;;;;24.21;100.00;100283.34;5123137;27;20023;-71
2022/06/22 00:22:27;;;;;;;5.78;4.32;;;;;;;24.28;100.00;100297.94;5137233;27;20027;-71
2022/06/22 00:25:20;;;;;;;8.95;4.75;;;;;;;24.05;100.00;100295.38;5136692;27;20069;-71
2022/06/22 00:28:26;;;;;;;10.38;4.68;;;;;;;23.80;100.00;100303.63;5120861;27;20530;-70
2022/06/22 00:31:11;;;;;;;7.57;4.68;;;;;;;24.20;100.00;100294.16;5137634;27;20073;-70
2022/06/22 00:34:09;;;;;;;11.38;4.55;;;;;;;24.10;100.00;100315.47;5136261;27;20037;-70
2022/06/22 00:37:12;;;;;;;8.10;4.65;;;;;;;24.02;100.00;100323.25;5136239;27;20360;-70
2022/06/22 00:40:01;;;;;;;6.32;4.38;;;;;;;23.68;100.00;100318.81;5137149;27;20355;-70
2022/06/22 00:42:50;;;;;;;6.53;4.72;;;;;;;23.76;100.00;100334.25;5137618;27;20087;-70
2022/06/22 00:45:36;;;;;;;10.43;4.60;;;;;;;23.89;100.00;100324.28;5136356;27;20352;-70
2022/06/22 00:48:29;;;;;;;9.15;4.43;;;;;;;23.74;100.00;100322.84;5137180;27;20492;-69
2022/06/22 00:51:20;;;;;;;8.55;4.65;;;;;;;23.92;100.00;100333.00;5137068;27;20035;-70
2022/06/22 00:54:12;;;;;;;6.03;4.32;;;;;;;23.82;100.00;100339.97;5137050;27;20117;-70
2022/06/22 00:57:12;;;;;;;10.27;5.32;;;;;;;23.60;100.00;100344.44;5137082;27;20050;-71
2022/06/22 01:00:06;;;;;;;12.23;5.13;;;;;;;23.64;100.00;100348.59;5122149;27;20098;-70
2022/06/22 01:02:58;;;;;;;11.52;4.63;;;;;;;23.38;100.00;100341.72;5136594;27;20023;-70
2022/06/22 01:06:02;;;;;;;9.02;4.72;;;;;;;23.39;100.00;100338.94;5136872;27;20487;-70
2022/06/22 01:08:57;;;;;;;8.55;4.65;;;;;;;23.52;100.00;100340.53;5120822;27;20108;-70
2022/06/22 01:15:35;;;;;;;8.45;4.55;;;;;;;23.13;100.00;100345.34;5136514;27;20042;-70
2022/06/22 01:18:31;;;;;;;8.57;4.63;;;;;;;23.47;100.00;100344.53;5121444;27;20080;-71
2022/06/22 01:21:29;;;;;;;6.88;4.60;;;;;;;23.56;100.00;100351.84;5136257;27;20106;-70
2022/06/22 01:24:30;;;;;;;9.40;4.10;;;;;;;23.37;100.00;100351.53;5135397;27;20422;-70
2022/06/22 01:27:30;;;;;;;8.52;4.35;;;;;;;23.43;100.00;100343.06;5136114;27;20080;-70
2022/06/22 01:30:19;;;;;;;9.20;4.25;;;;;;;23.50;100.00;100330.09;5136005;27;20109;-69
2022/06/22 01:33:08;;;;;;;7.80;4.40;;;;;;;23.21;100.00;100332.28;5136110;27;20377;-72
2022/06/22 01:36:00;;;;;;;6.80;3.88;;;;;;;22.98;100.00;100330.44;5135897;27;20098;-70
2022/06/22 01:38:46;;;;;;;7.78;3.90;;;;;;;23.39;100.00;100328.22;5120096;27;20023;-69
2022/06/22 01:41:38;;;;;;;8.65;3.97;;;;;;;23.20;100.00;100331.41;5136418;27;20362;-70
2022/06/22 01:44:42;;;;;;;8.55;4.30;;;;;;;22.70;100.00;100338.78;5135914;27;20347;-70
2022/06/22 01:47:40;;;;;;;9.98;4.60;;;;;;;23.38;100.00;100349.72;5135548;27;20115;-69
2022/06/22 01:50:38;;;;;;;9.30;4.55;;;;;;;23.09;100.00;100339.38;5120656;27;20060;-70
2022/06/22 01:53:30;;;;;;;7.22;4.47;;;;;;;22.73;100.00;100331.41;5135591;27;20030;-71
2022/06/22 01:56:25;;;;;;;7.63;4.60;;;;;;;22.68;100.00;100340.72;5135002;27;20023;-70
2022/06/22 01:59:16;;;;;;;9.43;4.35;;;;;;;22.58;100.00;100332.53;5135498;27;20019;-71
2022/06/22 02:02:15;;;;;;;8.77;4.10;;;;;;;22.80;100.00;100340.69;5135415;27;20023;-70
2022/06/22 02:05:20;;;;;;;11.27;4.55;;;;;;;22.78;100.00;100336.41;5135222;27;20447;-70
2022/06/22 02:08:20;;;;;;;5.78;4.28;;;;;;;22.68;100.00;100341.59;5135642;27;20027;-70
2022/06/22 02:11:20;;;;;;;7.22;4.22;;;;;;;22.81;100.00;100333.50;5135199;27;20093;-70
2022/06/22 02:14:21;;;;;;;5.70;4.25;;;;;;;22.67;100.00;100342.53;5119869;27;20451;-70
2022/06/22 02:17:08;;;;;;;6.28;4.50;;;;;;;22.88;100.00;100346.31;5135104;27;20110;-70
2022/06/22 02:20:18;;;;;;;10.98;4.57;;;;;;;22.85;100.00;100343.00;5136262;27;20421;-71
2022/06/22 02:23:24;;;;;;;9.07;4.65;;;;;;;22.57;100.00;100354.00;5134677;27;20038;-71
2022/06/22 02:26:48;;;;;;;11.02;4.72;;;;;;;22.13;100.00;100349.13;5134949;27;20511;-70
2022/06/22 02:29:49;;;;;;;11.48;5.07;;;;;;;22.01;100.00;100360.66;5134785;27;20046;-71
2022/06/22 02:32:42;;;;;;;13.20;4.90;;;;;;;22.42;100.00;100369.25;5134960;27;20038;-70
2022/06/22 02:35:28;;;;;;;8.57;5.10;;;;;;;22.01;100.00;100387.34;5134608;27;20351;-71
2022/06/22 02:38:15;;;;;;;8.45;4.80;;;;;;;21.90;100.00;100384.56;5135170;27;20027;-70
2022/06/22 02:44:31;;;;;;;9.45;5.00;;;;;;;21.77;100.00;100383.72;5134834;27;20110;-69
2022/06/22 02:47:31;;;;;;;10.98;5.20;;;;;;;21.69;100.00;100378.00;5134488;27;20374;-70
2022/06/22 02:50:38;;;;;;;10.55;5.10;;;;;;;21.99;100.00;100388.41;5134363;27;20023;-70
2022/06/22 02:53:34;;;;;;;11.57;4.93;;;;;;;21.83;100.00;100377.09;5118486;27;20023;-71
2022/06/22 02:56:27;;;;;;;8.13;4.68;;;;;;;21.55;100.00;100363.91;5118537;27;20087;-70
2022/06/22 02:59:14;;;;;;;8.70;4.57;;;;;;;21.80;100.00;100364.84;5133099;27;20050;-70
2022/06/22 03:02:01;;;;;;;11.38;5.07;;;;;;;22.01;100.00;100368.66;5118851;27;20431;-71
2022/06/22 03:04:48;;;;;;;10.18;5.05;;;;;;;22.01;100.00;100382.00;5119834;27;20447;-71
2022/06/22 03:07:38;;;;;;;11.23;4.70;;;;;;;21.57;100.00;100369.97;5133772;27;20029;-70
2022/06/22 03:10:30;;;;;;;8.90;5.05;;;;;;;21.57;100.00;100376.19;5134560;27;20027;-71
2022/06/22 03:13:20;;;;;;;8.02;4.63;;;;;;;21.86;100.00;100372.41;5134963;28;20023;-71
2022/06/22 03:16:15;;;;;;;6.88;5.03;;;;;;;21.85;100.00;100376.03;5134289;28;20031;-70
2022/06/22 03:19:06;;;;;;;8.82;4.70;;;;;;;21.95;100.00;100369.09;5134700;28;20454;-71
2022/06/22 03:21:52;;;;;;;16.60;5.45;;;;;;;21.80;100.00;100366.63;5118050;28;20030;-71
2022/06/22 03:24:50;;;;;;;10.00;5.55;;;;;;;22.20;100.00;100374.44;5135263;28;20027;-70
2022/06/22 03:27:40;;;;;;;10.02;5.13;;;;;;;22.05;100.00;100383.50;5118054;28;20180;-70
2022/06/22 03:30:32;;;;;;;9.68;5.55;;;;;;;22.29;100.00;100380.91;5119119;28;20034;-70
2022/06/22 03:33:35;;;;;;;14.52;5.88;;;;;;;21.99;100.00;100373.25;5119475;28;20027;-70
2022/06/22 03:36:30;;;;;;;9.98;5.32;;;;;;;22.34;100.00;100368.97;5119247;28;20106;-69
2022/06/22 03:39:18;;;;;;;17.05;6.07;;;;;;;22.37;100.00;100378.56;5133233;28;20033;-70
2022/06/22 03:42:11;;;;;;;12.88;5.20;;;;;;;22.38;100.00;100386.47;5134518;28;20079;-71
2022/06/22 03:45:10;;;;;;;8.45;5.07;;;;;;;22.29;100.00;100386.25;5134184;28;20019;-71
2022/06/22 03:48:08;;;;;;;9.55;5.55;;;;;;;22.27;100.00;100388.19;5137479;27;20474;-69
2022/06/22 03:51:03;;;;;;;8.02;5.20;;;;;;;22.27;100.00;100394.38;5138125;27;20027;-70
2022/06/22 03:53:59;;;;;;;12.88;4.78;;;;;;;22.47;100.00;100411.69;5124911;27;20027;-70
2022/06/22 03:56:51;;;;;;;8.07;4.95;;;;;;;22.76;100.00;100406.00;5136660;27;20022;-71
2022/06/22 03:59:40;;;;;;;10.43;5.18;;;;;;;22.28;100.00;100409.44;5138223;27;20027;-71
2022/06/22 04:02:28;;;;;;;16.25;4.95;;;;;;;22.13;100.00;100404.31;5138851;27;20015;-70
2022/06/22 04:05:20;;;;;;;8.10;5.25;;;;;;;22.04;100.00;100416.50;5138389;27;20405;-71
2022/06/22 04:08:20;;;;;;;7.13;4.97;;;;;;;22.27;100.00;100405.06;5138567;27;20027;-70
2022/06/22 04:11:16;;;;;;;6.93;5.20;;;;;;;22.39;100.00;100403.34;5137917;27;20023;-70
2022/06/22 04:14:13;;;;;;;9.73;5.18;;;;;;;22.44;100.00;100395.88;5138321;27;20033;-70
2022/06/22 04:17:03;;;;;;;9.73;5.60;;;;;;;22.41;100.00;100399.59;5138367;27;20465;-70
2022/06/22 04:20:00;;;;;;;9.23;4.65;;;;;;;22.28;100.00;100395.25;5137844;27;20367;-71
2022/06/22 04:22:51;;;;;;;8.35;5.47;;;;;;;22.36;100.00;100393.75;5137999;27;20031;-70
2022/06/22 04:25:38;;;;;;;12.00;5.38;;;;;;;22.47;100.00;100385.84;5137591;27;20019;-70
2022/06/22 04:28:28;;;;;;;9.50;4.95;;;;;;;22.61;100.00;100380.38;5136953;27;20051;-70
2022/06/22 04:31:30;;;;;;;12.13;5.97;;;;;;;22.59;100.00;100389.47;5121593;27;20023;-71
2022/06/22 04:34:27;;;;;;;8.30;5.38;;;;;;;22.33;100.00;100377.94;5137349;27;20046;-70
2022/06/22 04:37:35;;;;;;;9.90;5.30;;;;;;;22.32;100.00;100370.91;5137476;27;20496;-72
2022/06/22 04:41:07;;;;;;;9.38;6.10;;;;;;;22.74;100.00;100373.19;5137310;27;20038;-71
2022/06/22 04:43:56;;;;;;;14.13;5.93;;;;;;;22.62;100.00;100384.75;5034576;28;20106;-71
2022/06/22 04:46:46;;;;;;;12.52;5.85;;;;;;;22.68;100.00;100389.66;5123169;27;20029;-71
2022/06/22 04:49:41;;;;;;;11.00;5.47;;;;;;;22.70;100.00;100401.06;5137216;27;20164;-71
2022/06/22 04:52:43;;;;;;;12.18;5.82;;;;;;;22.89;100.00;100408.59;5136706;27;20038;-71
2022/06/22 04:55:31;;;;;;;8.60;5.50;;;;;;;23.19;100.00;100407.19;5137150;27;20027;-70
2022/06/22 04:58:41;;;;;;;11.75;5.72;;;;;;;23.34;100.00;100400.75;5136977;27;20066;-71
2022/06/22 05:01:33;;;;;;;13.70;5.93;;;;;;;23.21;100.00;100401.78;5121837;27;20038;-70
2022/06/22 05:04:25;;;;;;;12.00;5.93;;;;;;;23.19;100.00;100409.88;5137127;27;20027;-70
2022/06/22 05:07:22;;;;;;;10.45;5.85;;;;;;;23.44;100.00;100411.63;5136643;27;20041;-71
2022/06/22 05:10:08;;;;;;;8.63;5.30;;;;;;;23.36;100.00;100420.19;5136658;27;20027;-71
2022/06/22 05:13:04;;;;;;;9.88;5.05;;;;;;;23.59;100.00;100426.53;5136543;27;20325;-72
2022/06/22 05:15:53;;;;;;;14.18;5.35;;;;;;;23.25;100.00;100440.69;5134955;27;20019;-70
2022/06/22 05:18:42;;;;;;;7.72;5.10;;;;;;;23.25;100.00;100441.56;5136029;27;20107;-71
2022/06/22 05:21:41;;;;;;;6.75;4.75;;;;;;;23.58;100.00;100435.50;5135366;27;20084;-71
2022/06/22 05:24:33;;;;;;;8.02;5.13;;;;;;;23.63;100.00;100432.47;5136369;27;20035;-70
2022/06/22 05:27:23;;;;;;;10.77;5.53;;;;;;;23.64;100.00;100436.84;5119836;27;20051;-70
2022/06/22 05:30:10;;;;;;;12.63;5.13;;;;;;;23.24;100.00;100437.16;5136421;27;20448;-71
2022/06/22 05:33:06;;;;;;;9.18;4.72;;;;;;;23.83;100.00;100442.53;5120321;27;20031;-70
2022/06/22 05:36:04;;;;;;;4.93;4.20;;;;;;;23.67;100.00;100444.66;5136040;27;20096;-71
2022/06/22 05:38:54;;;;;;;11.48;4.63;;;;;;;23.66;100.00;100445.63;5122530;27;20103;-71
2022/06/22 05:41:44;;;;;;;6.22;4.55;;;;;;;23.62;100.00;100452.19;5135794;27;20034;-71
2022/06/22 05:44:30;;;;;;;8.07;4.43;;;;;;;24.06;100.00;100444.34;5136384;27;20037;-70
2022/06/22 05:47:27;;;;;;;6.43;4.20;;;;;;;24.19;100.00;100443.25;5135781;27;20027;-71
2022/06/22 05:50:19;;;;;;;8.40;4.60;;;;;;;23.81;100.00;100439.97;5136173;27;20336;-70
2022/06/22 05:53:11;;;;;;;7.95;4.68;;;;;;;23.68;100.00;100444.53;5120068;27;20062;-71
2022/06/22 05:56:12;;;;;;;7.82;4.60;;;;;;;24.01;100.00;100455.38;5136432;27;20083;-70
2022/06/22 05:59:24;;;;;;;11.45;5.63;;;;;;;24.54;100.00;100445.81;5135032;27;20023;-71
2022/06/22 06:02:10;;;;;;;7.28;4.72;;;;;;;24.26;100.00;100440.97;5100179;27;20046;-71
2022/06/22 06:05:22;;;;;;;9.85;4.85;;;;;;;24.30;100.00;100443.25;5133941;27;20023;-70
2022/06/22 06:08:20;;;;;;;7.78;4.95;;;;;;;24.35;100.00;100445.59;5121962;27;20035;-70
2022/06/22 06:11:12;;;;;;;11.00;4.80;;;;;;;24.34;100.00;100442.06;5111994;27;20034;-71
2022/06/22 06:14:04;;;;;;;8.15;5.05;;;;;;;24.77;100.00;100440.41;5112782;27;20037;-72
2022/06/22 06:16:54;;;;;;;8.90;5.50;;;;;;;24.75;100.00;100439.66;5111115;27;20440;-73
2022/06/22 06:19:43;;;;;;;8.30;5.47;;;;;;;24.99;100.00;100447.56;5113386;27;20046;-73
2022/06/22 06:22:30;;;;;;;13.32;5.40;;;;;;;24.52;100.00;100437.94;5127049;27;20457;-72
2022/06/22 06:28:35;;;;;;;8.73;5.35;;;;;;;24.96;100.00;100434.41;5127552;27;20051;-73
2022/06/22 06:31:34;;;;;;;7.32;5.38;;;;;;;25.07;100.00;100429.84;5110476;27;20027;-72
2022/06/22 06:34:27;;;;;;;8.27;5.70;;;;;;;25.10;100.00;100448.38;5125599;27;20869;-73
2022/06/22 06:37:20;;;;;;;9.38;5.47;;;;;;;25.16;100.00;100442.50;5126684;27;20506;-72
2022/06/22 06:40:13;;;;;;;9.55;5.55;;;;;;;24.79;100.00;100441.09;5126542;27;20043;-72
2022/06/22 06:43:14;;;;;;;16.10;5.50;;;;;;;25.33;100.00;100438.47;5126950;27;20460;-73
2022/06/22 06:46:00;;;;;;;9.55;6.00;;;;;;;25.47;100.00;100438.22;5127253;27;20502;-73
2022/06/22 06:48:57;;;;;;;9.77;5.75;;;;;;;25.61;100.00;100436.06;5125941;27;20065;-73
2022/06/22 06:51:49;;;;;;;15.13;7.75;;;;;;;25.86;98.95;100437.53;5124555;27;20038;-73
2022/06/22 06:54:41;;;;;;;8.18;6.25;;;;;;;25.74;100.00;100439.44;5124602;27;20039;-72
2022/06/22 06:57:29;;;;;;;13.73;5.88;;;;;;;25.43;100.00;100434.06;5110542;27;20050;-73
2022/06/22 07:00:16;;;;;;;9.60;5.57;;;;;;;25.68;100.00;100423.81;5124675;27;20048;-72
2022/06/22 07:03:05;;;;;;;7.95;5.40;;;;;;;25.94;99.44;100406.41;5112630;27;20031;-75
2022/06/22 07:05:52;;;;;;;8.05;6.00;;;;;;;25.91;99.00;100412.00;5110959;27;20439;-74
2022/06/22 07:08:43;;;;;;;8.95;5.78;;;;;;;26.18;96.87;100401.59;5126589;27;20038;-72
2022/06/22 07:11:34;;;;;;;12.52;5.75;;;;;;;25.62;100.00;100412.75;5126584;27;20106;-70
2022/06/22 07:14:33;;;;;;;9.82;6.20;;;;;;;26.25;97.06;100416.22;5125753;27;20039;-70
2022/06/22 07:17:22;;;;;;;9.98;5.63;;;;;;;26.43;97.31;100428.03;5110740;28;20034;-70
2022/06/22 07:20:13;;;;;;;9.73;6.53;;;;;;;26.31;97.52;100425.53;5125179;27;20105;-72
2022/06/22 07:23:06;;;;;;;13.45;6.53;;;;;;;26.57;96.76;100421.44;5114647;27;20038;-74
2022/06/22 07:26:02;;;;;;;11.00;7.05;;;;;;;26.31;98.17;100425.53;5131330;27;20023;-75
2022/06/22 07:29:46;;;;;;;12.93;6.07;;;;;;;26.36;98.63;100426.03;5129068;27;20061;-74
2022/06/22 07:32:43;;;;;;;8.10;5.82;;;;;;;26.88;92.05;100415.91;5113190;27;20138;-74
2022/06/22 07:35:40;;;;;;;10.10;5.35;;;;;;;27.15;86.07;100416.13;5130451;27;20628;-73
2022/06/22 07:38:32;;;;;;;8.50;6.07;;;;;;;27.68;75.90;100413.09;5129614;27;20121;-73
2022/06/22 07:41:20;;;;;;;9.52;4.50;;;;;;;27.83;65.99;100417.91;5127928;27;20432;-72
2022/06/22 07:44:18;;;;;;;6.85;3.80;;;;;;;28.04;60.60;100417.75;5129913;27;20195;-72
2022/06/22 07:47:36;;;;;;;12.35;5.40;;;;;;;27.27;70.58;100424.97;5113349;27;20031;-74
2022/06/22 07:50:27;;;;;;;7.82;4.50;;;;;;;27.15;70.56;100424.22;5128199;27;20035;-72
2022/06/22 07:53:18;;;;;;;9.32;4.90;;;;;;;27.92;68.34;100425.13;5129519;27;20015;-73
2022/06/22 07:56:31;;;;;;;8.68;4.68;;;;;;;27.73;69.15;100427.84;5130221;27;20379;-72
2022/06/22 07:59:48;;;;;;;6.97;4.30;;;;;;;27.68;63.47;100430.06;5128747;27;20027;-71
2022/06/22 08:03:18;;;;;;;5.47;4.10;;;;;;;27.70;64.53;100429.94;5127651;27;20095;-73
2022/06/22 08:06:10;;;;;;;4.70;3.85;;;;;;;28.66;57.50;100435.03;5027491;28;20034;-72
2022/06/22 08:09:02;;;;;;;8.90;3.65;;;;;;;28.53;54.08;100428.28;5026394;28;20378;-72
2022/06/22 08:12:05;;;;;;;4.35;3.50;;;;;;;28.41;54.20;100419.50;5110380;27;20031;-72
2022/06/22 08:14:53;;;;;;;6.03;3.55;;;;;;;28.61;51.12;100429.22;5129684;27;20147;-74
2022/06/22 08:17:46;;;;;;;4.97;3.63;;;;;;;28.28;58.10;100416.25;5129287;27;20102;-74
2022/06/22 08:20:36;;;;;;;7.10;3.53;;;;;;;29.34;51.03;100426.47;5126440;27;20022;-72
2022/06/22 08:23:26;;;;;;;10.48;3.60;;;;;;;29.03;50.63;100435.88;5114093;27;20059;-74
2022/06/22 08:26:21;;;;;;;5.88;3.50;;;;;;;29.85;47.18;100445.53;5130472;27;20036;-73
2022/06/22 08:29:09;;;;;;;12.50;4.10;;;;;;;29.93;53.38;100431.25;5130327;27;20115;-74
2022/06/22 08:32:12;;;;;;;7.10;3.60;;;;;;;30.27;50.55;100419.53;5128549;27;20035;-73
2022/06/22 08:35:07;;;;;;;10.23;3.50;;;;;;;29.96;48.26;100409.28;5128286;27;20043;-73
2022/06/22 08:38:01;;;;;;;13.70;6.55;;;;;;;29.66;46.85;100410.56;5115583;27;20035;-72
2022/06/22 08:41:23;;;;;;;7.35;3.83;;;;;;;30.37;45.17;100403.19;5127101;27;20427;-73
2022/06/22 08:44:46;;;;;;;8.55;3.53;;;;;;;30.17;46.05;100401.72;5126602;27;20035;-74
2022/06/22 08:47:35;;;;;;;7.55;3.60;;;;;;;30.19;42.61;100411.38;5129581;27;20034;-71
2022/06/22 08:50:23;;;;;;;11.98;3.58;;;;;;;30.18;47.35;100403.44;5127337;27;20034;-76
2022/06/22 08:53:32;;;;;;;7.82;3.78;;;;;;;30.67;42.53;100408.09;5130993;27;20359;-78
2022/06/22 08:56:43;;;;;;;13.93;3.60;;;;;;;30.27;44.39;100403.31;5117834;27;20041;-77
2022/06/22 08:59:53;;;;;;;7.78;3.42;;;;;;;29.93;43.83;100399.66;5129429;27;20636;-72
2022/06/22 09:02:51;;;;;;;6.38;3.15;;;;;;;30.56;42.61;100403.81;5128620;27;20068;-70
2022/06/22 09:06:02;;;;;;;7.32;3.38;;;;;;;30.67;43.29;100398.13;5126888;27;20377;-70
2022/06/22 09:09:05;;;;;;;4.70;3.42;;;;;;;30.73;43.48;100389.38;5115516;27;20424;-71
2022/06/22 09:12:06;;;;;;;7.30;3.58;;;;;;;29.93;44.55;100378.03;5112868;27;20027;-74
2022/06/22 09:15:05;;;;;;;6.93;3.72;;;;;;;30.65;44.06;100386.59;5129119;27;20119;-78
2022/06/22 09:18:28;;;;;;;8.68;3.08;;;;;;;30.19;44.74;100378.94;5129147;27;20027;-73
2022/06/22 09:21:21;;;;;;;6.93;3.90;;;;;;;30.76;43.90;100371.97;5126760;27;20035;-76
2022/06/22 09:24:18;;;;;;;7.10;3.47;;;;;;;30.59;43.72;100373.75;5127822;27;20371;-77
2022/06/22 09:27:26;;;;;;;9.70;3.90;;;;;;;31.00;42.23;100372.91;5128852;27;20058;-78
2022/06/22 09:30:24;;;;;;;7.30;3.92;;;;;;;31.37;43.07;100374.38;5111720;27;20058;-78
2022/06/22 09:33:22;;;;;;;7.30;3.60;;;;;;;31.43;41.76;100374.53;5126690;27;20439;-72
2022/06/22 09:36:48;;;;;;;5.03;3.47;;;;;;;30.39;44.75;100380.41;5129900;27;20057;-77
2022/06/22 09:39:59;;;;;;;4.28;3.25;;;;;;;30.71;43.02;100367.06;5113666;27;20038;-70
2022/06/22 09:43:14;;;;;;;9.63;3.58;;;;;;;31.29;41.11;100373.34;5127480;27;20042;-72
2022/06/22 09:46:44;;;;;;;6.22;3.15;;;;;;;31.50;41.28;100363.88;5113063;27;20074;-71
2022/06/22 09:49:55;;;;;;;8.13;3.60;;;;;;;31.46;41.84;100362.53;5101291;27;20035;-71
2022/06/22 09:52:50;;;;;;;8.85;3.25;;;;;;;31.27;39.98;100359.09;5126434;27;20033;-70
2022/06/22 09:56:23;;;;;;;7.93;3.30;;;;;;;31.04;40.64;100370.72;5112566;27;20046;-71
2022/06/22 09:59:38;;;;;;;5.93;3.58;;;;;;;31.12;40.54;100358.06;5112788;27;20152;-71
2022/06/22 10:02:54;;;;;;;6.60;3.38;;;;;;;31.24;39.93;100350.47;5110957;27;20035;-72
2022/06/22 10:06:13;;;;;;;6.00;3.42;;;;;;;31.16;38.02;100359.41;5127319;27;20088;-71
2022/06/22 10:09:13;;;;;;;7.90;3.30;;;;;;;31.00;38.95;100359.38;5127296;27;20034;-71
2022/06/22 10:12:34;;;;;;;5.80;2.85;;;;;;;31.38;37.23;100362.50;5127304;27;20043;-71
2022/06/22 10:15:53;;;;;;;6.25;3.10;;;;;;;31.21;35.70;100358.91;5126784;27;20470;-70
2022/06/22 10:18:58;;;;;;;18.65;11.02;;;;;;;30.99;34.96;100363.06;5124686;27;20038;-70
2022/06/22 10:21:52;;;;;;;11.98;5.72;;;;;;;30.94;34.41;100367.31;5125890;27;20443;-71
2022/06/22 10:25:08;;;;;;;13.68;6.85;;;;;;;31.04;33.91;100365.28;5127428;27;20439;-76
2022/06/22 10:28:13;;;;;;;11.73;2.80;;;;;;;30.00;34.74;100365.59;5127873;27;20553;-76
2022/06/22 10:31:20;;;;;;;7.55;2.67;;;;;;;30.83;32.49;100362.19;5111821;27;20058;-76
2022/06/22 10:34:25;;;;;;;5.63;2.38;;;;;;;30.96;33.18;100376.97;5127552;27;20031;-76
2022/06/22 10:37:32;;;;;;;6.03;2.70;;;;;;;30.77;32.80;100376.38;5110152;27;20047;-71
2022/06/22 10:47:43;;;;;;;13.88;2.92;;;;;;;31.00;31.83;100361.22;5126354;27;20378;-70
2022/06/22 10:50:48;;;;;;;6.20;2.30;;;;;;;31.03;32.79;100350.06;5123332;27;20045;-70
2022/06/22 10:53:43;;;;;;;7.20;2.65;;;;;;;31.17;33.71;100358.38;5111279;27;20134;-71
2022/06/22 10:56:44;;;;;;;6.93;2.65;;;;;;;31.05;32.98;100357.00;5111658;27;20157;-71
2022/06/22 10:59:59;;;;;;;6.90;3.00;;;;;;;31.39;31.22;100349.63;5110873;27;20470;-70
2022/06/22 11:03:03;;;;;;;10.48;2.33;;;;;;;31.42;30.49;100363.88;5109356;27;20436;-71
2022/06/22 11:06:11;;;;;;;5.00;2.08;;;;;;;31.33;31.63;100363.88;5126623;27;20068;-71
2022/06/22 11:09:03;;;;;;;6.97;2.13;;;;;;;31.23;30.49;100362.31;5125297;27;20858;-71
2022/06/22 11:12:29;;;;;;;3.85;2.20;;;;;;;31.33;29.59;100356.75;5108295;27;20027;-70
2022/06/22 11:16:11;;;;;;;3.88;2.17;;;;;;;31.79;29.69;100354.25;5124310;27;20060;-71
2022/06/22 11:19:24;;;;;;;8.80;2.17;;;;;;;31.54;29.45;100343.56;5023848;28;20033;-70
2022/06/22 11:22:56;;;;;;;6.22;2.10;;;;;;;31.48;27.78;100358.63;5025746;28;20099;-71
2022/06/22 11:33:12;;;;;;;5.57;2.72;;;;;;;31.37;25.89;100342.69;5126599;28;20092;-71
2022/06/22 11:36:21;;;;;;;4.35;2.10;;;;;;;31.75;26.20;100347.44;5124814;28;20019;-71
2022/06/22 11:39:15;;;;;;;5.88;2.33;;;;;;;31.33;26.72;100333.22;5126265;28;20050;-71
2022/06/22 11:42:07;;;;;;;3.65;1.90;;;;;;;31.72;26.45;100341.50;5123729;28;20042;-70
2022/06/22 11:49:08;;;;;;;11.98;1.85;;;;;;;31.51;26.13;100333.91;5126281;28;20447;-70
2022/06/22 11:52:08;;;;;;;2.83;1.55;;;;;;;31.74;26.00;100331.38;5123772;28;20093;-71
2022/06/22 11:55:17;;;;;;;5.30;1.70;;;;;;;31.86;26.24;100332.75;5125690;28;20117;-69
2022/06/22 11:58:15;;;;;;;4.40;2.20;;;;;;;31.94;27.24;100324.59;5127914;28;20035;-75
2022/06/22 12:01:17;;;;;;;7.47;1.58;;;;;;;31.78;25.85;100327.31;5127340;28;20084;-75
2022/06/22 12:04:29;;;;;;;4.65;1.80;;;;;;;31.67;25.95;100325.78;5127502;28;20027;-75
2022/06/22 12:07:43;;;;;;;5.75;1.60;;;;;;;31.67;25.86;100322.22;5128523;27;20451;-75
2022/06/22 12:10:52;;;;;;;6.75;1.50;;;;;;;31.77;24.42;100320.22;5128477;27;20138;-71
2022/06/22 12:15:04;;;;;;;5.03;1.60;;;;;;;32.07;24.66;100317.63;5133049;27;20138;-72
2022/06/22 12:16:53;;;;;;;5.28;1.58;;;;;;;31.95;25.49;100315.44;5151478;27;20016;-71
2022/06/22 12:19:54;;;;;;;2.88;1.65;;;;;;;31.74;25.25;100317.81;5155096;27;20027;-71
2022/06/22 12:22:59;;;;;;;6.60;1.50;;;;;;;32.07;25.54;100320.31;5155237;27;20094;-71
2022/06/22 12:26:08;;;;;;;12.45;1.95;;;;;;;32.24;25.58;100321.09;5139484;27;20023;-70
2022/06/22 12:28:59;;;;;;;10.32;5.60;;;;;;;31.83;25.70;100320.38;5153576;27;20031;-72
2022/06/22 12:31:51;;;;;;;5.10;3.95;;;;;;;32.41;25.17;100315.50;5151709;27;20019;-73
2022/06/22 12:34:48;;;;;;;5.65;3.72;;;;;;;32.79;25.50;100306.47;5147045;27;20031;-72
2022/06/22 12:38:03;;;;;;;10.45;3.67;;;;;;;32.76;26.23;100309.56;5139935;27;20067;-71
2022/06/22 12:41:23;;;;;;;6.15;2.40;;;;;;;32.44;26.50;100295.28;5138629;27;20099;-71
2022/06/22 12:44:30;;;;;;;4.60;1.90;;;;;;;32.87;25.06;100303.72;5143657;27;20065;-75
2022/06/22 12:48:03;;;;;;;14.18;2.10;;;;;;;32.29;24.57;100314.19;5133972;27;20054;-76
2022/06/22 12:50:59;;;;;;;11.55;2.20;;;;;;;32.42;24.06;100310.91;5033289;27;20025;-75
2022/06/22 12:54:05;;;;;;;7.57;2.47;;;;;;;32.38;22.92;100306.88;5117709;27;20023;-76
2022/06/22 12:57:01;;;;;;;6.55;1.70;;;;;;;32.51;22.92;100301.72;5130812;27;20546;-75
2022/06/22 12:59:48;;;;;;;2.60;1.30;;;;;;;32.13;22.35;100291.66;5129964;27;20050;-75
2022/06/22 13:02:36;;;;;;;5.15;1.70;;;;;;;32.35;23.31;100302.66;5130118;27;20031;-75
2022/06/22 13:05:26;;;;;;;3.38;1.17;;;;;;;32.12;22.13;100300.81;5128743;27;20462;-75
2022/06/22 13:08:18;;;;;;;3.92;1.20;;;;;;;32.06;22.24;100299.63;5129504;27;20122;-75
2022/06/22 13:11:12;;;;;;;7.40;1.52;;;;;;;32.48;23.07;100302.91;5112743;27;20031;-75
2022/06/22 13:14:01;;;;;;;4.57;1.40;;;;;;;32.32;23.37;100299.41;5114874;27;20254;-76
2022/06/22 13:16:58;;;;;;;2.80;1.33;;;;;;;32.19;22.99;100296.38;5113843;27;20027;-75
2022/06/22 13:20:05;;;;;;;7.22;2.00;;;;;;;31.83;23.39;100297.84;5128461;27;20075;-77
2022/06/22 13:23:12;;;;;;;4.05;1.27;;;;;;;32.07;23.41;100292.38;5129061;27;20033;-77
2022/06/22 13:26:19;;;;;;;5.53;1.80;;;;;;;31.95;23.39;100293.75;5120639;27;20050;-76
2022/06/22 13:29:55;;;;;;;2.83;1.40;;;;;;;31.99;23.45;100304.09;5114365;27;20482;-76
2022/06/22 13:32:48;;;;;;;1.90;1.17;;;;;;;32.03;23.58;100301.84;5066338;27;20480;-77
2022/06/22 13:35:42;;;;;;;3.35;1.48;;;;;;;31.91;24.11;100303.25;5129653;27;20126;-76
2022/06/22 13:38:55;;;;;;;5.95;2.28;;;;;;;32.00;23.97;100297.63;5128258;27;20027;-76
2022/06/22 13:41:58;;;;;;;3.80;1.50;;;;;;;32.07;24.30;100293.22;5094081;27;20501;-76
2022/06/22 13:44:57;;;;;;;4.55;1.17;;;;;;;32.04;24.68;100293.56;5117645;27;20061;-76
2022/06/22 13:47:51;;;;;;;6.80;1.17;;;;;;;32.06;24.64;100294.22;5129997;27;20019;-76
2022/06/22 13:54:02;;;;;;;4.43;1.13;;;;;;;32.09;24.37;100301.16;5129214;27;20054;-74
2022/06/22 13:56:51;;;;;;;2.55;1.10;;;;;;;31.83;23.34;100295.13;5126995;27;20469;-74
2022/06/22 13:59:56;;;;;;;1.80;1.40;;;;;;;31.55;23.98;100299.19;5114924;27;20504;-75
2022/06/22 14:02:58;;;;;;;2.28;1.15;;;;;;;31.82;23.45;100294.28;5112727;27;20015;-76
2022/06/22 14:05:49;;;;;;;4.80;1.25;;;;;;;31.60;24.04;100291.41;5130149;27;20089;-73
2022/06/22 14:08:58;;;;;;;3.50;1.40;;;;;;;32.00;25.02;100285.94;5131363;27;20054;-77
2022/06/22 14:12:02;;;;;;;2.47;1.13;;;;;;;31.98;24.00;100286.09;5118750;27;20335;-76
2022/06/22 14:15:06;;;;;;;3.25;1.27;;;;;;;31.78;22.84;100282.09;5135307;27;20023;-76
2022/06/22 14:17:57;;;;;;;3.08;1.20;;;;;;;31.65;22.43;100289.03;5136640;27;20027;-77